sensor_id;sensor_type;location;lat;lon;timestamp;P1;durP1;ratioP1;P2;durP2;ratioP2
5878;SDS011;2965;42.640;23.370;2022-12-29T05:02:57;45.03;;;20.97;;
5878;SDS011;2965;42.640;23.370;2022-12-29T05:05:23;39.53;;;22.40;;
5878;SDS011;2965;42.640;23.370;2022-12-29T05:07:48;40.03;;;20.07;;
5878;SDS011;2965;42.640;23.370;2022-12-29T05:10:13;52.50;;;22.83;;
5878;SDS011;2965;42.640;23.370;2022-12-29T05:12:39;45.23;;;23.10;;
5878;SDS011;2965;42.640;23.370;2022-12-29T05:15:05;46.57;;;22.27;;
5878;SDS011;2965;42.640;23.370;2022-12-29T05:20:44;39.03;;;21.23;;
5878;SDS011;2965;42.640;23.370;2022-12-29T05:23:11;50.00;;;23.60;;
5878;SDS011;2965;42.640;23.370;2022-12-29T05:25:36;41.00;;;21.37;;
5878;SDS011;2965;42.640;23.370;2022-12-29T05:28:02;49.60;;;21.50;;
5878;SDS011;2965;42.640;23.370;2022-12-29T05:30:27;39.47;;;20.40;;
5878;SDS011;2965;42.640;23.370;2022-12-29T05:32:52;42.17;;;21.90;;
5878;SDS011;2965;42.640;23.370;2022-12-29T05:35:18;41.33;;;22.83;;
5878;SDS011;2965;42.640;23.370;2022-12-29T05:37:43;51.10;;;24.20;;
5878;SDS011;2965;42.640;23.370;2022-12-29T05:40:09;47.87;;;23.27;;
5878;SDS011;2965;42.640;23.370;2022-12-29T05:42:34;42.17;;;20.87;;
5878;SDS011;2965;42.640;23.370;2022-12-29T05:45:00;40.53;;;21.87;;
5878;SDS011;2965;42.640;23.370;2022-12-29T05:47:25;49.20;;;23.77;;
5878;SDS011;2965;42.640;23.370;2022-12-29T05:49:51;55.97;;;25.87;;
5878;SDS011;2965;42.640;23.370;2022-12-29T05:55:06;53.27;;;29.03;;
5878;SDS011;2965;42.640;23.370;2022-12-29T05:57:32;58.53;;;28.30;;
5878;SDS011;2965;42.640;23.370;2022-12-29T05:59:57;77.13;;;36.80;;
5878;SDS011;2965;42.640;23.370;2022-12-29T06:02:22;88.13;;;33.20;;
5878;SDS011;2965;42.640;23.370;2022-12-29T06:04:48;71.57;;;31.53;;
5878;SDS011;2965;42.640;23.370;2022-12-29T06:07:13;64.53;;;30.33;;
5878;SDS011;2965;42.640;23.370;2022-12-29T06:09:38;66.60;;;30.87;;
5878;SDS011;2965;42.640;23.370;2022-12-29T06:12:04;78.03;;;33.10;;
5878;SDS011;2965;42.640;23.370;2022-12-29T06:14:30;68.43;;;34.27;;
5878;SDS011;2965;42.640;23.370;2022-12-29T06:16:55;56.57;;;27.50;;
5878;SDS011;2965;42.640;23.370;2022-12-29T06:19:20;73.23;;;34.23;;
5878;SDS011;2965;42.640;23.370;2022-12-29T06:21:46;79.57;;;33.53;;
5878;SDS011;2965;42.640;23.370;2022-12-29T06:24:11;64.63;;;32.80;;
5878;SDS011;2965;42.640;23.370;2022-12-29T06:26:37;82.17;;;35.13;;
5878;SDS011;2965;42.640;23.370;2022-12-29T06:29:02;57.73;;;29.77;;
5878;SDS011;2965;42.640;23.370;2022-12-29T06:31:28;57.40;;;30.63;;
5878;SDS011;2965;42.640;23.370;2022-12-29T06:33:53;57.70;;;29.50;;
5878;SDS011;2965;42.640;23.370;2022-12-29T06:36:18;66.30;;;32.67;;
5878;SDS011;2965;42.640;23.370;2022-12-29T06:38:44;60.03;;;30.23;;
5878;SDS011;2965;42.640;23.370;2022-12-29T06:41:09;60.43;;;32.17;;
5878;SDS011;2965;42.640;23.370;2022-12-29T06:43:35;63.50;;;34.43;;
5878;SDS011;2965;42.640;23.370;2022-12-29T06:46:03;64.87;;;35.60;;
5878;SDS011;2965;42.640;23.370;2022-12-29T06:48:29;70.87;;;34.77;;
5878;SDS011;2965;42.640;23.370;2022-12-29T06:50:54;62.07;;;31.00;;
5878;SDS011;2965;42.640;23.370;2022-12-29T06:53:19;72.47;;;32.43;;
5878;SDS011;2965;42.640;23.370;2022-12-29T06:55:45;51.50;;;28.80;;
5878;SDS011;2965;42.640;23.370;2022-12-29T06:58:10;66.80;;;31.67;;
5878;SDS011;2965;42.640;23.370;2022-12-29T07:00:36;69.10;;;31.77;;
5878;SDS011;2965;42.640;23.370;2022-12-29T07:03:01;56.20;;;29.90;;
5878;SDS011;2965;42.640;23.370;2022-12-29T07:05:26;71.90;;;34.40;;
5878;SDS011;2965;42.640;23.370;2022-12-29T07:07:52;82.93;;;37.77;;
5878;SDS011;2965;42.640;23.370;2022-12-29T07:10:18;71.53;;;37.13;;
5878;SDS011;2965;42.640;23.370;2022-12-29T07:12:44;65.73;;;36.30;;
5878;SDS011;2965;42.640;23.370;2022-12-29T07:15:09;64.70;;;34.80;;
5878;SDS011;2965;42.640;23.370;2022-12-29T07:17:35;76.47;;;35.83;;
5878;SDS011;2965;42.640;23.370;2022-12-29T07:20:00;73.60;;;35.50;;
5878;SDS011;2965;42.640;23.370;2022-12-29T07:22:26;71.03;;;34.07;;
5878;SDS011;2965;42.640;23.370;2022-12-29T07:24:51;77.37;;;36.33;;
5878;SDS011;2965;42.640;23.370;2022-12-29T07:27:16;70.97;;;34.70;;
5878;SDS011;2965;42.640;23.370;2022-12-29T07:29:42;72.33;;;34.47;;
5878;SDS011;2965;42.640;23.370;2022-12-29T07:32:07;71.20;;;34.90;;
5878;SDS011;2965;42.640;23.370;2022-12-29T07:34:33;81.90;;;38.30;;
5878;SDS011;2965;42.640;23.370;2022-12-29T07:36:58;83.63;;;36.23;;
5878;SDS011;2965;42.640;23.370;2022-12-29T07:39:23;77.93;;;37.70;;
5878;SDS011;2965;42.640;23.370;2022-12-29T07:41:49;62.27;;;32.40;;
5878;SDS011;2965;42.640;23.370;2022-12-29T07:44:14;69.10;;;35.80;;
5878;SDS011;2965;42.640;23.370;2022-12-29T07:46:39;60.70;;;33.97;;
5878;SDS011;2965;42.640;23.370;2022-12-29T07:49:05;63.93;;;33.83;;
5878;SDS011;2965;42.640;23.370;2022-12-29T07:51:30;74.90;;;36.50;;
5878;SDS011;2965;42.640;23.370;2022-12-29T07:53:57;66.63;;;32.90;;
5878;SDS011;2965;42.640;23.370;2022-12-29T07:56:24;70.43;;;33.57;;
5878;SDS011;2965;42.640;23.370;2022-12-29T07:58:49;72.97;;;37.40;;
5878;SDS011;2965;42.640;23.370;2022-12-29T08:01:14;72.07;;;37.03;;
5878;SDS011;2965;42.640;23.370;2022-12-29T08:03:40;77.13;;;37.50;;
5878;SDS011;2965;42.640;23.370;2022-12-29T08:06:08;69.07;;;36.53;;
5878;SDS011;2965;42.640;23.370;2022-12-29T08:08:34;83.90;;;37.73;;
5878;SDS011;2965;42.640;23.370;2022-12-29T08:10:59;78.47;;;38.73;;
5878;SDS011;2965;42.640;23.370;2022-12-29T08:13:25;76.43;;;37.73;;
5878;SDS011;2965;42.640;23.370;2022-12-29T08:15:50;79.43;;;41.00;;
5878;SDS011;2965;42.640;23.370;2022-12-29T08:18:16;72.17;;;37.90;;
5878;SDS011;2965;42.640;23.370;2022-12-29T08:20:41;71.03;;;37.80;;
5878;SDS011;2965;42.640;23.370;2022-12-29T08:23:06;75.73;;;38.43;;
5878;SDS011;2965;42.640;23.370;2022-12-29T08:25:32;84.97;;;35.50;;
5878;SDS011;2965;42.640;23.370;2022-12-29T08:27:57;75.23;;;38.80;;
5878;SDS011;2965;42.640;23.370;2022-12-29T08:30:22;77.33;;;38.07;;
5878;SDS011;2965;42.640;23.370;2022-12-29T08:32:48;69.93;;;36.60;;
5878;SDS011;2965;42.640;23.370;2022-12-29T08:35:13;61.43;;;34.97;;
5878;SDS011;2965;42.640;23.370;2022-12-29T08:37:39;72.70;;;35.43;;
5878;SDS011;2965;42.640;23.370;2022-12-29T08:40:04;68.30;;;34.33;;
5878;SDS011;2965;42.640;23.370;2022-12-29T08:42:31;70.00;;;37.23;;
5878;SDS011;2965;42.640;23.370;2022-12-29T08:44:57;70.10;;;34.97;;
5878;SDS011;2965;42.640;23.370;2022-12-29T08:47:23;77.97;;;37.40;;
5878;SDS011;2965;42.640;23.370;2022-12-29T08:49:49;68.63;;;34.80;;
5878;SDS011;2965;42.640;23.370;2022-12-29T08:52:14;72.33;;;36.73;;
5878;SDS011;2965;42.640;23.370;2022-12-29T08:54:40;75.70;;;35.53;;
5878;SDS011;2965;42.640;23.370;2022-12-29T08:57:05;60.10;;;35.07;;
5878;SDS011;2965;42.640;23.370;2022-12-29T08:59:30;68.43;;;36.27;;
5878;SDS011;2965;42.640;23.370;2022-12-29T09:01:56;71.43;;;36.40;;
5878;SDS011;2965;42.640;23.370;2022-12-29T09:04:21;75.63;;;36.00;;
5878;SDS011;2965;42.640;23.370;2022-12-29T09:06:48;70.60;;;37.13;;
5878;SDS011;2965;42.640;23.370;2022-12-29T09:09:14;70.17;;;35.10;;
5878;SDS011;2965;42.640;23.370;2022-12-29T09:11:41;64.13;;;35.63;;
5878;SDS011;2965;42.640;23.370;2022-12-29T09:14:06;75.47;;;34.73;;
5878;SDS011;2965;42.640;23.370;2022-12-29T09:16:32;82.03;;;43.80;;
5878;SDS011;2965;42.640;23.370;2022-12-29T09:18:57;61.10;;;35.07;;
5878;SDS011;2965;42.640;23.370;2022-12-29T09:21:23;64.13;;;33.37;;
5878;SDS011;2965;42.640;23.370;2022-12-29T09:23:48;55.40;;;31.30;;
5878;SDS011;2965;42.640;23.370;2022-12-29T09:26:14;60.27;;;34.00;;
5878;SDS011;2965;42.640;23.370;2022-12-29T09:28:39;63.30;;;32.97;;
5878;SDS011;2965;42.640;23.370;2022-12-29T09:31:05;56.20;;;31.80;;
5878;SDS011;2965;42.640;23.370;2022-12-29T09:33:30;67.87;;;31.30;;
5878;SDS011;2965;42.640;23.370;2022-12-29T09:35:58;60.03;;;32.70;;
5878;SDS011;2965;42.640;23.370;2022-12-29T09:38:24;59.77;;;32.70;;
5878;SDS011;2965;42.640;23.370;2022-12-29T09:40:53;64.60;;;32.53;;
5878;SDS011;2965;42.640;23.370;2022-12-29T09:49:02;64.50;;;34.83;;
5878;SDS011;2965;42.640;23.370;2022-12-29T09:51:48;64.10;;;32.80;;
5878;SDS011;2965;42.640;23.370;2022-12-29T09:56:59;57.00;;;31.50;;
5878;SDS011;2965;42.640;23.370;2022-12-29T09:59:27;54.07;;;29.67;;
5878;SDS011;2965;42.640;23.370;2022-12-29T10:05:03;60.77;;;31.87;;
5878;SDS011;2965;42.640;23.370;2022-12-29T10:07:39;58.40;;;30.47;;
5878;SDS011;2965;42.640;23.370;2022-12-29T10:13:29;52.70;;;26.90;;
5878;SDS011;2965;42.640;23.370;2022-12-29T10:19:33;60.83;;;31.80;;
5878;SDS011;2965;42.640;23.370;2022-12-29T10:22:00;55.07;;;31.47;;
5878;SDS011;2965;42.640;23.370;2022-12-29T10:24:37;61.00;;;31.33;;
5878;SDS011;2965;42.640;23.370;2022-12-29T10:27:03;70.37;;;31.40;;
5878;SDS011;2965;42.640;23.370;2022-12-29T10:29:37;59.80;;;31.27;;
5878;SDS011;2965;42.640;23.370;2022-12-29T10:32:06;59.23;;;33.70;;
5878;SDS011;2965;42.640;23.370;2022-12-29T10:34:39;59.27;;;31.83;;
5878;SDS011;2965;42.640;23.370;2022-12-29T10:39:51;58.20;;;32.10;;
5878;SDS011;2965;42.640;23.370;2022-12-29T10:42:26;64.47;;;35.17;;
5878;SDS011;2965;42.640;23.370;2022-12-29T10:45:02;56.27;;;30.20;;
5878;SDS011;2965;42.640;23.370;2022-12-29T10:47:31;54.93;;;31.97;;
5878;SDS011;2965;42.640;23.370;2022-12-29T10:49:59;60.47;;;31.90;;
5878;SDS011;2965;42.640;23.370;2022-12-29T10:52:27;58.93;;;32.20;;
5878;SDS011;2965;42.640;23.370;2022-12-29T10:59:53;55.17;;;31.50;;
5878;SDS011;2965;42.640;23.370;2022-12-29T11:02:39;50.20;;;30.30;;
5878;SDS011;2965;42.640;23.370;2022-12-29T11:08:09;55.70;;;30.03;;
5878;SDS011;2965;42.640;23.370;2022-12-29T11:10:40;53.30;;;29.87;;
5878;SDS011;2965;42.640;23.370;2022-12-29T11:15:54;59.97;;;32.33;;
5878;SDS011;2965;42.640;23.370;2022-12-29T11:20:52;54.70;;;32.10;;
5878;SDS011;2965;42.640;23.370;2022-12-29T11:23:33;51.50;;;30.23;;
5878;SDS011;2965;42.640;23.370;2022-12-29T11:28:32;55.80;;;31.83;;
5878;SDS011;2965;42.640;23.370;2022-12-29T11:31:01;55.67;;;31.40;;
5878;SDS011;2965;42.640;23.370;2022-12-29T11:33:29;51.87;;;30.13;;
5878;SDS011;2965;42.640;23.370;2022-12-29T11:35:58;55.70;;;30.97;;
5878;SDS011;2965;42.640;23.370;2022-12-29T11:38:51;55.20;;;30.83;;
5878;SDS011;2965;42.640;23.370;2022-12-29T11:41:20;52.10;;;28.93;;
5878;SDS011;2965;42.640;23.370;2022-12-29T11:43:48;51.00;;;28.93;;
5878;SDS011;2965;42.640;23.370;2022-12-29T11:46:19;57.20;;;29.67;;
5878;SDS011;2965;42.640;23.370;2022-12-29T11:48:49;57.40;;;29.17;;
5878;SDS011;2965;42.640;23.370;2022-12-29T11:51:27;46.03;;;29.40;;
5878;SDS011;2965;42.640;23.370;2022-12-29T11:53:58;54.83;;;30.40;;
5878;SDS011;2965;42.640;23.370;2022-12-29T11:56:34;46.67;;;29.50;;
5878;SDS011;2965;42.640;23.370;2022-12-29T12:01:52;50.10;;;30.20;;
5878;SDS011;2965;42.640;23.370;2022-12-29T12:04:18;49.20;;;29.73;;
5878;SDS011;2965;42.640;23.370;2022-12-29T12:06:48;54.83;;;29.37;;
5878;SDS011;2965;42.640;23.370;2022-12-29T12:09:23;50.20;;;29.00;;
5878;SDS011;2965;42.640;23.370;2022-12-29T12:11:52;55.73;;;30.97;;
5878;SDS011;2965;42.640;23.370;2022-12-29T12:14:27;56.43;;;30.97;;
5878;SDS011;2965;42.640;23.370;2022-12-29T12:17:09;53.60;;;30.23;;
5878;SDS011;2965;42.640;23.370;2022-12-29T12:19:53;61.77;;;32.70;;
5878;SDS011;2965;42.640;23.370;2022-12-29T12:22:34;55.27;;;31.87;;
5878;SDS011;2965;42.640;23.370;2022-12-29T12:25:04;62.70;;;32.53;;
5878;SDS011;2965;42.640;23.370;2022-12-29T12:27:48;55.63;;;30.77;;
5878;SDS011;2965;42.640;23.370;2022-12-29T12:30:19;54.70;;;31.13;;
5878;SDS011;2965;42.640;23.370;2022-12-29T12:32:48;64.63;;;31.90;;
5878;SDS011;2965;42.640;23.370;2022-12-29T12:38:19;57.27;;;31.67;;
5878;SDS011;2965;42.640;23.370;2022-12-29T12:51:45;59.60;;;31.83;;
5878;SDS011;2965;42.640;23.370;2022-12-29T12:59:56;55.40;;;32.10;;
5878;SDS011;2965;42.640;23.370;2022-12-29T13:17:25;67.00;;;33.50;;
5878;SDS011;2965;42.640;23.370;2022-12-29T13:23:12;60.77;;;31.33;;
5878;SDS011;2965;42.640;23.370;2022-12-29T13:28:26;56.90;;;31.33;;
5878;SDS011;2965;42.640;23.370;2022-12-29T13:31:08;65.80;;;30.47;;
5878;SDS011;2965;42.640;23.370;2022-12-29T13:34:05;72.27;;;30.90;;
5878;SDS011;2965;42.640;23.370;2022-12-29T13:36:43;63.73;;;31.60;;
5878;SDS011;2965;42.640;23.370;2022-12-29T13:41:51;56.00;;;30.17;;
5878;SDS011;2965;42.640;23.370;2022-12-29T13:47:24;71.83;;;32.33;;
5878;SDS011;2965;42.640;23.370;2022-12-29T13:49:50;75.57;;;32.23;;
5878;SDS011;2965;42.640;23.370;2022-12-29T13:52:37;59.43;;;29.77;;
5878;SDS011;2965;42.640;23.370;2022-12-29T14:00:31;57.00;;;28.70;;
5878;SDS011;2965;42.640;23.370;2022-12-29T14:06:02;55.20;;;27.90;;
5878;SDS011;2965;42.640;23.370;2022-12-29T14:08:36;59.30;;;28.03;;
5878;SDS011;2965;42.640;23.370;2022-12-29T14:11:05;54.43;;;27.70;;
5878;SDS011;2965;42.640;23.370;2022-12-29T14:13:36;55.63;;;29.20;;
5878;SDS011;2965;42.640;23.370;2022-12-29T14:16:04;62.23;;;30.83;;
5878;SDS011;2965;42.640;23.370;2022-12-29T14:18:31;50.50;;;28.40;;
5878;SDS011;2965;42.640;23.370;2022-12-29T14:21:10;60.13;;;29.00;;
5878;SDS011;2965;42.640;23.370;2022-12-29T14:23:46;62.43;;;24.80;;
5878;SDS011;2965;42.640;23.370;2022-12-29T14:28:39;46.33;;;24.87;;
5878;SDS011;2965;42.640;23.370;2022-12-29T14:34:14;44.23;;;22.40;;
5878;SDS011;2965;42.640;23.370;2022-12-29T14:39:52;66.37;;;35.23;;
5878;SDS011;2965;42.640;23.370;2022-12-29T14:44:30;55.07;;;26.40;;
5878;SDS011;2965;42.640;23.370;2022-12-29T14:47:00;73.30;;;35.10;;
5878;SDS011;2965;42.640;23.370;2022-12-29T14:49:31;74.97;;;34.10;;
5878;SDS011;2965;42.640;23.370;2022-12-29T14:54:51;71.17;;;34.77;;
5878;SDS011;2965;42.640;23.370;2022-12-29T14:57:20;80.97;;;37.27;;
5878;SDS011;2965;42.640;23.370;2022-12-29T15:00:06;60.20;;;32.63;;
5878;SDS011;2965;42.640;23.370;2022-12-29T15:02:33;83.47;;;34.90;;
5878;SDS011;2965;42.640;23.370;2022-12-29T15:05:03;79.10;;;33.73;;
5878;SDS011;2965;42.640;23.370;2022-12-29T15:07:31;71.50;;;32.60;;
5878;SDS011;2965;42.640;23.370;2022-12-29T15:09:59;81.93;;;36.23;;
5878;SDS011;2965;42.640;23.370;2022-12-29T15:12:39;64.97;;;33.47;;
5878;SDS011;2965;42.640;23.370;2022-12-29T15:15:27;78.83;;;37.77;;
5878;SDS011;2965;42.640;23.370;2022-12-29T15:17:55;72.50;;;35.07;;
5878;SDS011;2965;42.640;23.370;2022-12-29T15:20:22;78.07;;;35.60;;
5878;SDS011;2965;42.640;23.370;2022-12-29T15:22:50;75.53;;;34.73;;
5878;SDS011;2965;42.640;23.370;2022-12-29T15:25:21;73.77;;;34.30;;
5878;SDS011;2965;42.640;23.370;2022-12-29T15:28:05;67.37;;;34.60;;
5878;SDS011;2965;42.640;23.370;2022-12-29T15:30:32;74.27;;;34.77;;
5878;SDS011;2965;42.640;23.370;2022-12-29T15:32:57;69.50;;;34.40;;
5878;SDS011;2965;42.640;23.370;2022-12-29T15:37:57;75.53;;;32.53;;
5878;SDS011;2965;42.640;23.370;2022-12-29T15:40:25;75.23;;;32.77;;
5878;SDS011;2965;42.640;23.370;2022-12-29T15:43:13;69.33;;;33.03;;
5878;SDS011;2965;42.640;23.370;2022-12-29T15:45:51;68.23;;;31.47;;
5878;SDS011;2965;42.640;23.370;2022-12-29T15:48:20;67.40;;;31.97;;
5878;SDS011;2965;42.640;23.370;2022-12-29T15:50:48;61.33;;;30.33;;
5878;SDS011;2965;42.640;23.370;2022-12-29T15:53:21;65.53;;;31.33;;
5878;SDS011;2965;42.640;23.370;2022-12-29T15:55:59;76.30;;;29.50;;
5878;SDS011;2965;42.640;23.370;2022-12-29T15:58:30;67.47;;;30.97;;
5878;SDS011;2965;42.640;23.370;2022-12-29T16:00:59;57.83;;;29.30;;
5878;SDS011;2965;42.640;23.370;2022-12-29T16:03:27;57.07;;;29.50;;
5878;SDS011;2965;42.640;23.370;2022-12-29T16:06:09;57.70;;;27.83;;
5878;SDS011;2965;42.640;23.370;2022-12-29T16:08:37;57.73;;;27.70;;
5878;SDS011;2965;42.640;23.370;2022-12-29T16:11:16;66.67;;;30.30;;
5878;SDS011;2965;42.640;23.370;2022-12-29T16:13:49;62.30;;;29.37;;
5878;SDS011;2965;42.640;23.370;2022-12-29T16:16:31;58.07;;;30.90;;
5878;SDS011;2965;42.640;23.370;2022-12-29T16:19:01;71.20;;;31.00;;
5878;SDS011;2965;42.640;23.370;2022-12-29T16:21:46;59.10;;;30.67;;
5878;SDS011;2965;42.640;23.370;2022-12-29T16:24:16;58.60;;;30.30;;
5878;SDS011;2965;42.640;23.370;2022-12-29T16:26:52;56.43;;;26.47;;
5878;SDS011;2965;42.640;23.370;2022-12-29T16:29:23;63.70;;;28.87;;
5878;SDS011;2965;42.640;23.370;2022-12-29T16:31:50;61.97;;;30.00;;
5878;SDS011;2965;42.640;23.370;2022-12-29T16:34:24;58.63;;;30.77;;
5878;SDS011;2965;42.640;23.370;2022-12-29T16:37:00;57.73;;;28.93;;
5878;SDS011;2965;42.640;23.370;2022-12-29T16:41:58;69.40;;;30.33;;
5878;SDS011;2965;42.640;23.370;2022-12-29T16:44:25;64.40;;;31.40;;
5878;SDS011;2965;42.640;23.370;2022-12-29T16:46:57;71.20;;;31.77;;
5878;SDS011;2965;42.640;23.370;2022-12-29T16:49:29;68.87;;;30.33;;
5878;SDS011;2965;42.640;23.370;2022-12-29T16:51:56;61.30;;;29.70;;
5878;SDS011;2965;42.640;23.370;2022-12-29T21:16:26;96.80;;;43.80;;
5878;SDS011;2965;42.640;23.370;2022-12-29T21:18:52;109.80;;;47.50;;
5878;SDS011;2965;42.640;23.370;2022-12-29T21:21:21;127.97;;;57.07;;
5878;SDS011;2965;42.640;23.370;2022-12-29T21:23:49;116.30;;;51.17;;
5878;SDS011;2965;42.640;23.370;2022-12-29T21:26:16;94.70;;;45.80;;
5878;SDS011;2965;42.640;23.370;2022-12-29T21:28:43;114.07;;;51.23;;
5878;SDS011;2965;42.640;23.370;2022-12-29T21:31:11;98.27;;;48.00;;
5878;SDS011;2965;42.640;23.370;2022-12-29T21:33:49;133.93;;;61.50;;
5878;SDS011;2965;42.640;23.370;2022-12-29T21:36:14;126.43;;;56.33;;
5878;SDS011;2965;42.640;23.370;2022-12-29T21:38:40;108.53;;;51.87;;
5878;SDS011;2965;42.640;23.370;2022-12-29T21:41:06;121.33;;;53.20;;
5878;SDS011;2965;42.640;23.370;2022-12-29T21:43:33;131.30;;;49.73;;
5878;SDS011;2965;42.640;23.370;2022-12-29T21:46:00;102.27;;;47.50;;
5878;SDS011;2965;42.640;23.370;2022-12-29T21:48:25;97.23;;;45.20;;
5878;SDS011;2965;42.640;23.370;2022-12-29T21:51:06;107.20;;;47.90;;
5878;SDS011;2965;42.640;23.370;2022-12-29T21:53:58;99.03;;;46.63;;
5878;SDS011;2965;42.640;23.370;2022-12-29T21:56:45;108.80;;;48.87;;
5878;SDS011;2965;42.640;23.370;2022-12-29T21:59:12;101.57;;;44.40;;
